sensor_id;sensor_type;location;lat;lon;timestamp;pressure;altitude;pressure_sealevel;temperature;humidity
52651;BME280;38537;47.226;39.702;2023-07-29T00:00:21;99401.28;;;23.54;65.00
52651;BME280;38537;47.226;39.702;2023-07-29T00:02:48;99396.41;;;23.47;65.39
52651;BME280;38537;47.226;39.702;2023-07-29T00:05:16;99395.72;;;23.29;65.61
52651;BME280;38537;47.226;39.702;2023-07-29T00:07:43;99388.84;;;23.23;66.05
52651;BME280;38537;47.226;39.702;2023-07-29T00:10:11;99394.56;;;23.19;65.84
52651;BME280;38537;47.226;39.702;2023-07-29T00:12:39;99413.78;;;23.05;66.24
52651;BME280;38537;47.226;39.702;2023-07-29T00:15:09;99383.03;;;22.78;66.49
52651;BME280;38537;47.226;39.702;2023-07-29T00:17:37;99418.78;;;22.90;66.50
52651;BME280;38537;47.226;39.702;2023-07-29T00:20:08;99402.13;;;22.81;66.38
52651;BME280;38537;47.226;39.702;2023-07-29T00:22:38;99392.78;;;22.74;66.44
52651;BME280;38537;47.226;39.702;2023-07-29T00:25:08;99396.88;;;22.69;66.60
52651;BME280;38537;47.226;39.702;2023-07-29T00:27:41;99390.06;;;22.45;67.10
52651;BME280;38537;47.226;39.702;2023-07-29T00:30:12;99421.31;;;22.56;67.38
52651;BME280;38537;47.226;39.702;2023-07-29T00:32:42;99393.75;;;22.35;67.25
52651;BME280;38537;47.226;39.702;2023-07-29T00:35:12;99401.88;;;22.33;67.56
52651;BME280;38537;47.226;39.702;2023-07-29T00:37:40;99423.00;;;22.39;67.72
52651;BME280;38537;47.226;39.702;2023-07-29T00:40:21;99427.41;;;22.58;68.07
52651;BME280;38537;47.226;39.702;2023-07-29T00:42:52;99418.13;;;22.33;67.84
52651;BME280;38537;47.226;39.702;2023-07-29T00:45:20;99427.47;;;22.44;67.56
52651;BME280;38537;47.226;39.702;2023-07-29T00:47:47;99418.88;;;22.58;67.12
52651;BME280;38537;47.226;39.702;2023-07-29T00:50:17;99410.06;;;22.24;67.47
52651;BME280;38537;47.226;39.702;2023-07-29T00:52:46;99410.06;;;22.28;67.40
52651;BME280;38537;47.226;39.702;2023-07-29T00:55:13;99421.38;;;22.42;67.21
52651;BME280;38537;47.226;39.702;2023-07-29T00:57:44;99443.31;;;22.48;67.25
52651;BME280;38537;47.226;39.702;2023-07-29T01:00:26;99422.19;;;22.42;67.71
52651;BME280;38537;47.226;39.702;2023-07-29T01:02:57;99431.13;;;22.37;67.50
52651;BME280;38537;47.226;39.702;2023-07-29T01:05:30;99432.81;;;22.24;68.32
52651;BME280;38537;47.226;39.702;2023-07-29T01:08:09;99431.16;;;22.30;68.57
52651;BME280;38537;47.226;39.702;2023-07-29T01:11:00;99447.78;;;22.39;68.96
52651;BME280;38537;47.226;39.702;2023-07-29T01:13:44;99400.31;;;22.18;68.48
52651;BME280;38537;47.226;39.702;2023-07-29T01:16:21;99441.69;;;22.40;68.53
52651;BME280;38537;47.226;39.702;2023-07-29T01:18:55;99440.47;;;22.45;68.29
52651;BME280;38537;47.226;39.702;2023-07-29T01:21:25;99429.56;;;22.15;68.39
52651;BME280;38537;47.226;39.702;2023-07-29T01:23:58;99436.06;;;22.22;68.71
52651;BME280;38537;47.226;39.702;2023-07-29T01:26:33;99380.84;;;22.06;67.65
52651;BME280;38537;47.226;39.702;2023-07-29T01:29:05;99444.88;;;22.56;67.43
52651;BME280;38537;47.226;39.702;2023-07-29T01:31:34;99458.22;;;22.88;66.60
52651;BME280;38537;47.226;39.702;2023-07-29T01:34:19;99432.19;;;22.93;66.54
52651;BME280;38537;47.226;39.702;2023-07-29T01:36:53;99445.22;;;22.87;66.27
52651;BME280;38537;47.226;39.702;2023-07-29T01:39:22;99438.31;;;22.74;66.17
52651;BME280;38537;47.226;39.702;2023-07-29T01:41:52;99465.59;;;22.64;66.37
52651;BME280;38537;47.226;39.702;2023-07-29T01:44:20;99459.91;;;22.61;66.76
52651;BME280;38537;47.226;39.702;2023-07-29T01:46:49;99462.38;;;22.58;66.89
52651;BME280;38537;47.226;39.702;2023-07-29T01:49:23;99487.16;;;22.62;67.16
52651;BME280;38537;47.226;39.702;2023-07-29T01:51:53;99476.66;;;22.44;67.06
52651;BME280;38537;47.226;39.702;2023-07-29T01:54:24;99492.06;;;22.54;67.26
52651;BME280;38537;47.226;39.702;2023-07-29T01:56:54;99490.88;;;22.30;67.17
52651;BME280;38537;47.226;39.702;2023-07-29T01:59:21;99505.97;;;22.06;67.64
52651;BME280;38537;47.226;39.702;2023-07-29T02:01:51;99503.09;;;21.99;68.01
52651;BME280;38537;47.226;39.702;2023-07-29T02:04:19;99481.16;;;21.64;68.37
52651;BME280;38537;47.226;39.702;2023-07-29T02:06:48;99491.31;;;21.65;68.63
52651;BME280;38537;47.226;39.702;2023-07-29T02:09:16;99488.03;;;21.59;68.93
52651;BME280;38537;47.226;39.702;2023-07-29T02:11:43;99488.84;;;21.70;68.22
52651;BME280;38537;47.226;39.702;2023-07-29T02:14:10;99497.78;;;21.76;68.10
52651;BME280;38537;47.226;39.702;2023-07-29T02:16:38;99501.84;;;21.71;68.06
52651;BME280;38537;47.226;39.702;2023-07-29T02:19:28;99496.53;;;21.48;68.28
52651;BME280;38537;47.226;39.702;2023-07-29T02:21:55;99495.72;;;21.41;68.82
52651;BME280;38537;47.226;39.702;2023-07-29T02:24:23;99512.38;;;21.53;68.94
52651;BME280;38537;47.226;39.702;2023-07-29T02:26:50;99506.69;;;21.42;68.95
52651;BME280;38537;47.226;39.702;2023-07-29T02:29:21;99516.41;;;21.48;69.18
52651;BME280;38537;47.226;39.702;2023-07-29T02:31:50;99528.63;;;21.70;68.84
52651;BME280;38537;47.226;39.702;2023-07-29T02:34:23;99517.28;;;21.70;68.80
52651;BME280;38537;47.226;39.702;2023-07-29T02:37:02;99519.28;;;21.66;68.57
52651;BME280;38537;47.226;39.702;2023-07-29T02:39:34;99535.94;;;21.68;68.64
52651;BME280;38537;47.226;39.702;2023-07-29T02:42:04;99537.19;;;21.77;68.64
52651;BME280;38537;47.226;39.702;2023-07-29T02:44:37;99520.94;;;21.64;68.83
52651;BME280;38537;47.226;39.702;2023-07-29T02:47:05;99540.81;;;21.67;68.90
52651;BME280;38537;47.226;39.702;2023-07-29T02:49:38;99522.13;;;21.52;69.02
52651;BME280;38537;47.226;39.702;2023-07-29T02:52:08;99538.78;;;21.57;69.53
52651;BME280;38537;47.226;39.702;2023-07-29T02:54:44;99545.69;;;21.63;68.73
52651;BME280;38537;47.226;39.702;2023-07-29T02:57:14;99524.19;;;21.62;68.90
52651;BME280;38537;47.226;39.702;2023-07-29T02:59:49;99541.63;;;21.68;69.05
52651;BME280;38537;47.226;39.702;2023-07-29T03:02:18;99538.38;;;21.62;68.99
52651;BME280;38537;47.226;39.702;2023-07-29T03:04:48;99561.94;;;21.80;69.31
52651;BME280;38537;47.226;39.702;2023-07-29T03:07:15;99561.94;;;21.73;68.89
52651;BME280;38537;47.226;39.702;2023-07-29T03:09:43;99540.81;;;21.67;69.35
52651;BME280;38537;47.226;39.702;2023-07-29T03:12:12;99548.94;;;21.72;69.08
52651;BME280;38537;47.226;39.702;2023-07-29T03:14:47;99543.69;;;21.81;68.45
52651;BME280;38537;47.226;39.702;2023-07-29T03:17:22;99555.50;;;22.01;68.52
52651;BME280;38537;47.226;39.702;2023-07-29T03:19:52;99534.31;;;21.74;68.22
52651;BME280;38537;47.226;39.702;2023-07-29T03:22:19;99574.13;;;21.92;68.21
52651;BME280;38537;47.226;39.702;2023-07-29T03:24:49;99555.84;;;21.71;68.13
52651;BME280;38537;47.226;39.702;2023-07-29T03:27:16;99584.22;;;21.57;68.75
52651;BME280;38537;47.226;39.702;2023-07-29T03:29:44;99568.03;;;21.65;68.66
52651;BME280;38537;47.226;39.702;2023-07-29T03:32:12;99514.38;;;21.35;68.38
52651;BME280;38537;47.226;39.702;2023-07-29T03:34:39;99575.31;;;21.66;68.33
52651;BME280;38537;47.226;39.702;2023-07-29T03:37:07;99586.28;;;21.74;68.07
52651;BME280;38537;47.226;39.702;2023-07-29T03:39:35;99594.03;;;21.77;68.14
52651;BME280;38537;47.226;39.702;2023-07-29T03:42:02;99604.97;;;21.75;68.18
52651;BME280;38537;47.226;39.702;2023-07-29T03:44:30;99565.19;;;21.65;67.84
52651;BME280;38537;47.226;39.702;2023-07-29T03:46:58;99577.38;;;21.90;67.59
52651;BME280;38537;47.226;39.702;2023-07-29T03:49:26;99611.56;;;22.15;67.08
52651;BME280;38537;47.226;39.702;2023-07-29T03:51:54;99586.00;;;22.26;66.46
52651;BME280;38537;47.226;39.702;2023-07-29T03:54:21;99605.91;;;22.29;66.39
52651;BME280;38537;47.226;39.702;2023-07-29T03:56:48;99590.44;;;22.12;66.61
52651;BME280;38537;47.226;39.702;2023-07-29T03:59:17;99605.09;;;22.25;66.37
52651;BME280;38537;47.226;39.702;2023-07-29T04:01:44;99618.09;;;22.47;65.96
52651;BME280;38537;47.226;39.702;2023-07-29T04:04:12;99640.03;;;22.22;66.31
52651;BME280;38537;47.226;39.702;2023-07-29T04:06:40;99625.38;;;22.09;66.05
52651;BME280;38537;47.226;39.702;2023-07-29T04:09:08;99638.34;;;22.00;66.13
52651;BME280;38537;47.226;39.702;2023-07-29T04:11:37;99639.13;;;21.97;66.37
52651;BME280;38537;47.226;39.702;2023-07-29T04:14:04;99596.84;;;21.70;66.46
52651;BME280;38537;47.226;39.702;2023-07-29T04:16:32;99636.75;;;22.06;66.41
52651;BME280;38537;47.226;39.702;2023-07-29T04:18:59;99653.00;;;22.05;66.50
52651;BME280;38537;47.226;39.702;2023-07-29T04:21:27;99634.25;;;21.94;66.63
52651;BME280;38537;47.226;39.702;2023-07-29T04:23:55;99638.72;;;21.91;66.74
52651;BME280;38537;47.226;39.702;2023-07-29T04:26:26;99637.91;;;21.83;66.76
52651;BME280;38537;47.226;39.702;2023-07-29T04:28:53;99644.81;;;21.86;66.73
52651;BME280;38537;47.226;39.702;2023-07-29T04:31:21;99652.50;;;21.82;67.01
52651;BME280;38537;47.226;39.702;2023-07-29T04:33:50;99624.47;;;21.73;66.58
52651;BME280;38537;47.226;39.702;2023-07-29T04:36:17;99648.06;;;21.84;66.67
52651;BME280;38537;47.226;39.702;2023-07-29T04:38:45;99626.53;;;21.83;66.41
52651;BME280;38537;47.226;39.702;2023-07-29T04:41:13;99669.56;;;21.93;66.43
52651;BME280;38537;47.226;39.702;2023-07-29T04:43:41;99666.00;;;22.03;66.41
52651;BME280;38537;47.226;39.702;2023-07-29T04:46:08;99644.00;;;21.85;66.19
52651;BME280;38537;47.226;39.702;2023-07-29T04:48:36;99657.47;;;22.17;65.94
52651;BME280;38537;47.226;39.702;2023-07-29T04:51:03;99649.38;;;22.37;65.32
52651;BME280;38537;47.226;39.702;2023-07-29T04:53:30;99661.97;;;22.61;64.75
52651;BME280;38537;47.226;39.702;2023-07-29T04:55:58;99651.41;;;22.57;64.44
52651;BME280;38537;47.226;39.702;2023-07-29T04:58:25;99650.19;;;22.44;64.34
52651;BME280;38537;47.226;39.702;2023-07-29T05:00:53;99685.97;;;22.56;64.59
52651;BME280;38537;47.226;39.702;2023-07-29T05:03:21;99668.06;;;22.41;64.39
52651;BME280;38537;47.226;39.702;2023-07-29T05:05:49;99660.34;;;22.67;63.90
52651;BME280;38537;47.226;39.702;2023-07-29T05:08:17;99687.22;;;22.87;63.41
52651;BME280;38537;47.226;39.702;2023-07-29T05:10:48;99693.69;;;22.77;63.57
52651;BME280;38537;47.226;39.702;2023-07-29T05:13:18;99695.31;;;22.56;63.58
52651;BME280;38537;47.226;39.702;2023-07-29T05:15:50;99715.63;;;22.58;63.81
52651;BME280;38537;47.226;39.702;2023-07-29T05:18:19;99712.75;;;22.34;64.13
52651;BME280;38537;47.226;39.702;2023-07-29T05:20:46;99703.81;;;22.32;64.54
52651;BME280;38537;47.226;39.702;2023-07-29T05:23:14;99698.16;;;22.49;64.08
52651;BME280;38537;47.226;39.702;2023-07-29T05:25:41;99685.16;;;22.48;64.16
52651;BME280;38537;47.226;39.702;2023-07-29T05:28:09;99686.41;;;22.86;63.37
52651;BME280;38537;47.226;39.702;2023-07-29T05:30:36;99705.91;;;22.95;62.88
52651;BME280;38537;47.226;39.702;2023-07-29T05:33:07;99711.97;;;23.18;62.32
52651;BME280;38537;47.226;39.702;2023-07-29T05:35:37;99716.44;;;23.30;62.17
52651;BME280;38537;47.226;39.702;2023-07-29T05:38:05;99697.72;;;23.18;62.04
52651;BME280;38537;47.226;39.702;2023-07-29T05:40:35;99692.44;;;23.38;61.28
52651;BME280;38537;47.226;39.702;2023-07-29T05:43:02;99713.19;;;23.32;61.22
52651;BME280;38537;47.226;39.702;2023-07-29T05:45:30;99720.09;;;23.31;61.16
52651;BME280;38537;47.226;39.702;2023-07-29T05:47:58;99738.44;;;23.33;61.14
52651;BME280;38537;47.226;39.702;2023-07-29T05:50:25;99725.00;;;23.34;60.62
52651;BME280;38537;47.226;39.702;2023-07-29T05:52:54;99705.03;;;23.37;60.66
52651;BME280;38537;47.226;39.702;2023-07-29T05:55:22;99739.25;;;23.30;60.23
52651;BME280;38537;47.226;39.702;2023-07-29T05:57:49;99729.53;;;22.92;60.65
52651;BME280;38537;47.226;39.702;2023-07-29T06:00:17;99720.13;;;22.95;60.54
52651;BME280;38537;47.226;39.702;2023-07-29T06:02:44;99718.09;;;22.96;60.63
52651;BME280;38537;47.226;39.702;2023-07-29T06:05:15;99735.16;;;23.20;60.35
52651;BME280;38537;47.226;39.702;2023-07-29T06:07:43;99741.31;;;23.15;60.40
52651;BME280;38537;47.226;39.702;2023-07-29T06:10:14;99719.72;;;23.21;59.95
52651;BME280;38537;47.226;39.702;2023-07-29T06:12:46;99719.75;;;23.14;60.14
52651;BME280;38537;47.226;39.702;2023-07-29T06:15:15;99745.75;;;23.38;59.76
52651;BME280;38537;47.226;39.702;2023-07-29T06:17:43;99713.59;;;23.34;59.17
52651;BME280;38537;47.226;39.702;2023-07-29T06:20:11;99731.88;;;23.47;59.15
52651;BME280;38537;47.226;39.702;2023-07-29T06:22:38;99733.50;;;23.41;58.83
52651;BME280;38537;47.226;39.702;2023-07-29T06:25:06;99735.50;;;23.65;59.00
52651;BME280;38537;47.226;39.702;2023-07-29T06:27:33;99708.25;;;23.50;58.45
52651;BME280;38537;47.226;39.702;2023-07-29T06:30:01;99716.81;;;23.50;58.37
52651;BME280;38537;47.226;39.702;2023-07-29T06:32:29;99735.13;;;23.45;58.28
52651;BME280;38537;47.226;39.702;2023-07-29T06:34:57;99711.59;;;23.02;58.75
52651;BME280;38537;47.226;39.702;2023-07-29T06:37:26;99721.28;;;23.40;58.29
52651;BME280;38537;47.226;39.702;2023-07-29T06:39:54;99728.59;;;23.63;58.09
52651;BME280;38537;47.226;39.702;2023-07-29T06:42:21;99746.50;;;23.63;57.33
52651;BME280;38537;47.226;39.702;2023-07-29T06:44:49;99770.09;;;23.74;57.04
52651;BME280;38537;47.226;39.702;2023-07-29T06:47:16;99749.41;;;23.52;56.77
52651;BME280;38537;47.226;39.702;2023-07-29T06:49:45;99767.28;;;23.42;56.41
52651;BME280;38537;47.226;39.702;2023-07-29T06:52:12;99737.25;;;23.13;56.17
52651;BME280;38537;47.226;39.702;2023-07-29T06:54:40;99745.78;;;23.16;56.69
52651;BME280;38537;47.226;39.702;2023-07-29T06:57:08;99767.31;;;23.24;56.42
52651;BME280;38537;47.226;39.702;2023-07-29T06:59:35;99775.47;;;23.37;56.53
52651;BME280;38537;47.226;39.702;2023-07-29T07:02:02;99775.03;;;23.45;55.76
52651;BME280;38537;47.226;39.702;2023-07-29T07:04:30;99753.03;;;23.42;55.23
52651;BME280;38537;47.226;39.702;2023-07-29T07:06:58;99769.31;;;23.49;54.96
52651;BME280;38537;47.226;39.702;2023-07-29T07:09:25;99771.38;;;23.55;54.26
52651;BME280;38537;47.226;39.702;2023-07-29T07:11:55;99729.38;;;23.70;54.68
52651;BME280;38537;47.226;39.702;2023-07-29T07:14:24;99774.50;;;23.97;54.01
52651;BME280;38537;47.226;39.702;2023-07-29T07:16:51;99769.63;;;23.97;53.31
52651;BME280;38537;47.226;39.702;2023-07-29T07:19:18;99764.34;;;23.85;53.22
52651;BME280;38537;47.226;39.702;2023-07-29T07:21:46;99761.06;;;23.93;52.87
52651;BME280;38537;47.226;39.702;2023-07-29T07:24:13;99779.78;;;24.02;52.96
52651;BME280;38537;47.226;39.702;2023-07-29T07:26:40;99766.75;;;24.01;52.35
52651;BME280;38537;47.226;39.702;2023-07-29T07:29:07;99801.34;;;24.06;52.48
52651;BME280;38537;47.226;39.702;2023-07-29T07:31:36;99773.69;;;24.00;52.12
52651;BME280;38537;47.226;39.702;2023-07-29T07:34:03;99777.75;;;24.02;51.64
52651;BME280;38537;47.226;39.702;2023-07-29T07:36:33;99715.38;;;24.04;52.02
52651;BME280;38537;47.226;39.702;2023-07-29T07:39:01;99793.13;;;24.30;50.54
52651;BME280;38537;47.226;39.702;2023-07-29T07:41:28;99770.75;;;24.14;50.50
52651;BME280;38537;47.226;39.702;2023-07-29T07:43:55;99775.22;;;24.18;50.26
52651;BME280;38537;47.226;39.702;2023-07-29T07:46:23;99786.19;;;24.31;51.15
52651;BME280;38537;47.226;39.702;2023-07-29T07:48:51;99765.03;;;24.21;51.30
52651;BME280;38537;47.226;39.702;2023-07-29T07:51:18;99782.09;;;24.39;51.44
52651;BME280;38537;47.226;39.702;2023-07-29T07:53:45;99772.31;;;24.36;50.76
52651;BME280;38537;47.226;39.702;2023-07-29T07:56:13;99774.66;;;24.52;50.70
52651;BME280;38537;47.226;39.702;2023-07-29T07:58:40;99777.78;;;24.72;50.21
52651;BME280;38537;47.226;39.702;2023-07-29T08:01:08;99794.16;;;24.68;48.63
52651;BME280;38537;47.226;39.702;2023-07-29T08:03:36;99792.16;;;24.61;48.85
52651;BME280;38537;47.226;39.702;2023-07-29T08:06:04;99762.50;;;24.44;49.28
52651;BME280;38537;47.226;39.702;2023-07-29T08:08:36;99772.22;;;24.50;49.73
52651;BME280;38537;47.226;39.702;2023-07-29T08:11:04;99786.06;;;24.55;50.23
52651;BME280;38537;47.226;39.702;2023-07-29T08:13:31;99774.22;;;24.57;49.24
52651;BME280;38537;47.226;39.702;2023-07-29T08:15:59;99750.03;;;24.76;49.40
52651;BME280;38537;47.226;39.702;2023-07-29T08:18:26;99745.34;;;25.03;49.02
52651;BME280;38537;47.226;39.702;2023-07-29T08:20:58;99773.94;;;25.00;47.07
52651;BME280;38537;47.226;39.702;2023-07-29T08:23:26;99775.16;;;25.02;47.54
52651;BME280;38537;47.226;39.702;2023-07-29T08:25:54;99805.22;;;25.17;47.91
52651;BME280;38537;47.226;39.702;2023-07-29T08:28:23;99784.09;;;25.04;47.63
52651;BME280;38537;47.226;39.702;2023-07-29T08:30:51;99776.72;;;25.10;47.64
52651;BME280;38537;47.226;39.702;2023-07-29T08:33:18;99766.00;;;25.21;48.15
52651;BME280;38537;47.226;39.702;2023-07-29T08:35:45;99771.22;;;25.30;48.04
52651;BME280;38537;47.226;39.702;2023-07-29T08:38:13;99758.44;;;25.42;48.08
52651;BME280;38537;47.226;39.702;2023-07-29T08:40:54;99787.63;;;25.67;48.03
52651;BME280;38537;47.226;39.702;2023-07-29T08:43:34;99751.66;;;25.70;48.30
52651;BME280;38537;47.226;39.702;2023-07-29T08:46:08;99790.22;;;25.92;47.91
52651;BME280;38537;47.226;39.702;2023-07-29T08:48:43;99770.94;;;25.96;47.67
52651;BME280;38537;47.226;39.702;2023-07-29T08:51:11;99777.00;;;26.02;47.75
52651;BME280;38537;47.226;39.702;2023-07-29T08:53:39;99772.44;;;26.08;47.67
52651;BME280;38537;47.226;39.702;2023-07-29T08:56:07;99792.38;;;26.15;47.50
52651;BME280;38537;47.226;39.702;2023-07-29T08:58:35;99765.84;;;26.11;47.58
52651;BME280;38537;47.226;39.702;2023-07-29T09:01:03;99763.66;;;25.91;47.28
52651;BME280;38537;47.226;39.702;2023-07-29T09:03:30;99783.25;;;25.93;47.54
52651;BME280;38537;47.226;39.702;2023-07-29T09:05:58;99761.84;;;26.05;47.75
52651;BME280;38537;47.226;39.702;2023-07-29T09:08:29;99765.38;;;26.16;47.41
52651;BME280;38537;47.226;39.702;2023-07-29T09:10:58;99776.41;;;26.17;47.13
52651;BME280;38537;47.226;39.702;2023-07-29T09:13:26;99785.25;;;26.30;47.20
52651;BME280;38537;47.226;39.702;2023-07-29T09:15:55;99774.34;;;26.18;46.62
52651;BME280;38537;47.226;39.702;2023-07-29T09:18:25;99756.03;;;26.12;46.74
52651;BME280;38537;47.226;39.702;2023-07-29T09:20:53;99769.75;;;26.24;46.78
52651;BME280;38537;47.226;39.702;2023-07-29T09:23:25;99771.50;;;26.18;46.40
52651;BME280;38537;47.226;39.702;2023-07-29T09:26:01;99777.38;;;26.04;46.00
52651;BME280;38537;47.226;39.702;2023-07-29T09:28:34;99758.03;;;25.81;46.63
52651;BME280;38537;47.226;39.702;2023-07-29T09:31:02;99776.56;;;26.03;47.60
52651;BME280;38537;47.226;39.702;2023-07-29T09:33:34;99759.50;;;26.30;47.80
52651;BME280;38537;47.226;39.702;2023-07-29T09:36:13;99746.31;;;26.36;47.95
52651;BME280;38537;47.226;39.702;2023-07-29T09:38:41;99766.81;;;26.61;47.78
52651;BME280;38537;47.226;39.702;2023-07-29T09:41:12;99737.81;;;26.59;47.49
52651;BME280;38537;47.226;39.702;2023-07-29T09:43:41;99752.75;;;26.71;47.44
52651;BME280;38537;47.226;39.702;2023-07-29T09:46:08;99776.94;;;26.93;47.73
52651;BME280;38537;47.226;39.702;2023-07-29T09:48:37;99775.00;;;26.86;47.25
52651;BME280;38537;47.226;39.702;2023-07-29T09:51:12;99756.34;;;27.05;47.09
52651;BME280;38537;47.226;39.702;2023-07-29T09:53:45;99780.56;;;27.01;46.05
52651;BME280;38537;47.226;39.702;2023-07-29T09:56:14;99782.69;;;26.93;46.48
52651;BME280;38537;47.226;39.702;2023-07-29T09:58:45;99757.38;;;26.88;46.70
52651;BME280;38537;47.226;39.702;2023-07-29T10:01:13;99770.84;;;26.91;46.85
52651;BME280;38537;47.226;39.702;2023-07-29T10:03:42;99784.31;;;26.94;46.90
52651;BME280;38537;47.226;39.702;2023-07-29T10:06:11;99781.06;;;26.92;46.63
52651;BME280;38537;47.226;39.702;2023-07-29T10:08:42;99767.91;;;26.98;46.51
52651;BME280;38537;47.226;39.702;2023-07-29T10:11:10;99737.03;;;26.82;46.13
52651;BME280;38537;47.226;39.702;2023-07-29T10:13:38;99799.66;;;27.07;45.89
52651;BME280;38537;47.226;39.702;2023-07-29T10:16:05;99765.91;;;26.91;44.86
52651;BME280;38537;47.226;39.702;2023-07-29T10:18:34;99797.94;;;26.86;44.12
52651;BME280;38537;47.226;39.702;2023-07-29T10:21:02;99792.63;;;26.85;43.78
52651;BME280;38537;47.226;39.702;2023-07-29T10:23:38;99761.25;;;26.51;43.52
52651;BME280;38537;47.226;39.702;2023-07-29T10:26:10;99773.28;;;26.66;44.41
52651;BME280;38537;47.226;39.702;2023-07-29T10:28:40;99787.78;;;26.82;45.35
52651;BME280;38537;47.226;39.702;2023-07-29T10:31:08;99794.94;;;26.97;45.23
52651;BME280;38537;47.226;39.702;2023-07-29T10:33:36;99760.94;;;26.99;44.04
52651;BME280;38537;47.226;39.702;2023-07-29T10:36:05;99791.69;;;26.95;42.14
52651;BME280;38537;47.226;39.702;2023-07-29T10:38:32;99817.06;;;26.96;42.37
52651;BME280;38537;47.226;39.702;2023-07-29T10:41:00;99778.81;;;26.80;41.94
52651;BME280;38537;47.226;39.702;2023-07-29T10:43:37;99767.56;;;26.66;40.89
52651;BME280;38537;47.226;39.702;2023-07-29T10:46:15;99804.22;;;26.78;40.62
52651;BME280;38537;47.226;39.702;2023-07-29T10:48:55;99760.25;;;26.88;41.60
52651;BME280;38537;47.226;39.702;2023-07-29T10:51:37;99786.91;;;26.85;40.46
52651;BME280;38537;47.226;39.702;2023-07-29T10:54:13;99772.84;;;26.94;41.17
52651;BME280;38537;47.226;39.702;2023-07-29T10:56:48;99775.00;;;27.13;41.90
52651;BME280;38537;47.226;39.702;2023-07-29T11:01:56;99786.91;;;27.35;39.65
52651;BME280;38537;47.226;39.702;2023-07-29T11:04:24;99782.56;;;27.27;40.23
52651;BME280;38537;47.226;39.702;2023-07-29T11:09:51;99794.00;;;26.77;38.70
52651;BME280;38537;47.226;39.702;2023-07-29T11:12:46;99800.44;;;26.84;39.84
52651;BME280;38537;47.226;39.702;2023-07-29T11:15:17;99800.97;;;26.76;39.01
52651;BME280;38537;47.226;39.702;2023-07-29T11:17:53;99777.44;;;26.88;39.75
52651;BME280;38537;47.226;39.702;2023-07-29T11:20:23;99789.50;;;26.76;38.47
52651;BME280;38537;47.226;39.702;2023-07-29T11:22:53;99803.09;;;26.99;39.10
52651;BME280;38537;47.226;39.702;2023-07-29T11:25:22;99778.50;;;27.01;37.85
52651;BME280;38537;47.226;39.702;2023-07-29T11:27:55;99789.19;;;27.24;38.36
52651;BME280;38537;47.226;39.702;2023-07-29T11:30:22;99771.97;;;27.24;37.91
52651;BME280;38537;47.226;39.702;2023-07-29T11:33:01;99773.16;;;27.26;38.30
52651;BME280;38537;47.226;39.702;2023-07-29T11:35:28;99766.41;;;27.37;38.46
52651;BME280;38537;47.226;39.702;2023-07-29T11:37:55;99773.34;;;27.39;37.52
52651;BME280;38537;47.226;39.702;2023-07-29T11:40:25;99763.78;;;27.46;37.83
52651;BME280;38537;47.226;39.702;2023-07-29T11:42:53;99767.75;;;27.52;37.56
52651;BME280;38537;47.226;39.702;2023-07-29T11:45:22;99797.16;;;27.59;37.23
52651;BME280;38537;47.226;39.702;2023-07-29T11:48:06;99773.41;;;27.59;35.97
52651;BME280;38537;47.226;39.702;2023-07-29T11:50:36;99788.28;;;27.74;37.31
52651;BME280;38537;47.226;39.702;2023-07-29T11:53:06;99767.53;;;27.66;37.10
52651;BME280;38537;47.226;39.702;2023-07-29T11:55:36;99748.91;;;27.74;36.82
52651;BME280;38537;47.226;39.702;2023-07-29T11:58:04;99781.84;;;27.89;36.97
52651;BME280;38537;47.226;39.702;2023-07-29T12:00:31;99761.88;;;27.82;36.63
52651;BME280;38537;47.226;39.702;2023-07-29T12:02:59;99795.31;;;27.92;36.67
52651;BME280;38537;47.226;39.702;2023-07-29T12:05:27;99814.66;;;27.88;36.10
52651;BME280;38537;47.226;39.702;2023-07-29T12:07:55;99818.09;;;27.80;35.82
52651;BME280;38537;47.226;39.702;2023-07-29T12:10:22;99811.16;;;27.54;35.89
52651;BME280;38537;47.226;39.702;2023-07-29T12:12:50;99790.63;;;27.59;36.58
52651;BME280;38537;47.226;39.702;2023-07-29T12:15:29;99812.78;;;27.78;36.50
52651;BME280;38537;47.226;39.702;2023-07-29T12:17:57;99801.31;;;27.78;36.52
52651;BME280;38537;47.226;39.702;2023-07-29T12:20:26;99825.78;;;27.63;35.66
52651;BME280;38537;47.226;39.702;2023-07-29T12:22:56;99816.16;;;27.50;35.84
52651;BME280;38537;47.226;39.702;2023-07-29T12:25:23;99794.34;;;27.33;36.75
52651;BME280;38537;47.226;39.702;2023-07-29T12:27:51;99802.44;;;27.38;36.37
52651;BME280;38537;47.226;39.702;2023-07-29T12:30:22;99821.66;;;27.41;36.30
52651;BME280;38537;47.226;39.702;2023-07-29T12:32:49;99803.88;;;27.49;36.80
52651;BME280;38537;47.226;39.702;2023-07-29T12:35:17;99804.44;;;27.41;36.66
52651;BME280;38537;47.226;39.702;2023-07-29T12:37:45;99805.41;;;27.54;36.84
52651;BME280;38537;47.226;39.702;2023-07-29T12:40:23;99817.06;;;27.70;36.49
52651;BME280;38537;47.226;39.702;2023-07-29T12:42:51;99806.94;;;27.62;36.57
52651;BME280;38537;47.226;39.702;2023-07-29T12:45:19;99822.81;;;27.70;36.44
52651;BME280;38537;47.226;39.702;2023-07-29T12:47:46;99794.81;;;27.51;36.21
52651;BME280;38537;47.226;39.702;2023-07-29T12:50:13;99783.34;;;27.51;36.54
52651;BME280;38537;47.226;39.702;2023-07-29T12:52:41;99795.19;;;27.53;36.83
52651;BME280;38537;47.226;39.702;2023-07-29T12:55:08;99781.59;;;27.57;36.91
52651;BME280;38537;47.226;39.702;2023-07-29T12:57:41;99816.41;;;27.82;36.43
52651;BME280;38537;47.226;39.702;2023-07-29T13:00:10;99798.72;;;27.64;35.53
52651;BME280;38537;47.226;39.702;2023-07-29T13:02:37;99809.63;;;27.49;35.74
52651;BME280;38537;47.226;39.702;2023-07-29T13:05:05;99839.19;;;27.46;35.65
52651;BME280;38537;47.226;39.702;2023-07-29T13:07:33;99817.09;;;27.20;35.10